sensor_id;sensor_type;location;lat;lon;timestamp;P1;durP1;ratioP1;P2;durP2;ratioP2
72132;SDS011;60008;50.826;6.896;2022-08-11T00:01:57;5.20;;;2.92;;
72132;SDS011;60008;50.826;6.896;2022-08-11T00:04:26;6.05;;;2.83;;
72132;SDS011;60008;50.826;6.896;2022-08-11T00:07:00;9.55;;;2.60;;
72132;SDS011;60008;50.826;6.896;2022-08-11T00:09:36;4.40;;;2.63;;
72132;SDS011;60008;50.826;6.896;2022-08-11T00:12:11;4.43;;;2.83;;
72132;SDS011;60008;50.826;6.896;2022-08-11T00:14:42;7.10;;;2.70;;
72132;SDS011;60008;50.826;6.896;2022-08-11T00:17:10;4.65;;;2.95;;
72132;SDS011;60008;50.826;6.896;2022-08-11T00:19:44;4.43;;;2.70;;
72132;SDS011;60008;50.826;6.896;2022-08-11T00:22:32;6.00;;;2.88;;
72132;SDS011;60008;50.826;6.896;2022-08-11T00:25:06;6.90;;;2.73;;
72132;SDS011;60008;50.826;6.896;2022-08-11T00:27:36;9.20;;;2.85;;
72132;SDS011;60008;50.826;6.896;2022-08-11T00:30:05;4.88;;;2.72;;
72132;SDS011;60008;50.826;6.896;2022-08-11T00:32:34;6.88;;;2.70;;
72132;SDS011;60008;50.826;6.896;2022-08-11T00:35:05;5.60;;;2.80;;
72132;SDS011;60008;50.826;6.896;2022-08-11T00:37:53;5.47;;;2.70;;
72132;SDS011;60008;50.826;6.896;2022-08-11T00:40:24;5.57;;;3.10;;
72132;SDS011;60008;50.826;6.896;2022-08-11T00:46:02;6.63;;;2.90;;
72132;SDS011;60008;50.826;6.896;2022-08-11T00:49:43;4.47;;;2.88;;
72132;SDS011;60008;50.826;6.896;2022-08-11T01:00:44;4.55;;;3.00;;
72132;SDS011;60008;50.826;6.896;2022-08-11T01:16:19;7.05;;;3.03;;
72132;SDS011;60008;50.826;6.896;2022-08-11T01:22:04;5.87;;;3.20;;
72132;SDS011;60008;50.826;6.896;2022-08-11T01:31:03;4.30;;;2.80;;
72132;SDS011;60008;50.826;6.896;2022-08-11T01:48:43;5.43;;;2.90;;
72132;SDS011;60008;50.826;6.896;2022-08-11T01:54:24;5.38;;;3.03;;
72132;SDS011;60008;50.826;6.896;2022-08-11T01:57:11;5.07;;;2.92;;
72132;SDS011;60008;50.826;6.896;2022-08-11T01:59:53;5.53;;;3.00;;
72132;SDS011;60008;50.826;6.896;2022-08-11T02:11:29;5.32;;;3.25;;
72132;SDS011;60008;50.826;6.896;2022-08-11T02:19:25;6.83;;;3.10;;
72132;SDS011;60008;50.826;6.896;2022-08-11T02:22:48;17.02;;;3.72;;
72132;SDS011;60008;50.826;6.896;2022-08-11T02:26:04;6.35;;;3.25;;
72132;SDS011;60008;50.826;6.896;2022-08-11T02:34:46;5.10;;;3.20;;
72132;SDS011;60008;50.826;6.896;2022-08-11T02:40:15;4.45;;;3.10;;
72132;SDS011;60008;50.826;6.896;2022-08-11T02:43:25;7.47;;;3.10;;
72132;SDS011;60008;50.826;6.896;2022-08-11T02:46:04;6.88;;;3.20;;
72132;SDS011;60008;50.826;6.896;2022-08-11T02:48:52;4.43;;;2.77;;
72132;SDS011;60008;50.826;6.896;2022-08-11T02:51:58;5.60;;;3.17;;
72132;SDS011;60008;50.826;6.896;2022-08-11T03:03:00;6.30;;;3.10;;
72132;SDS011;60008;50.826;6.896;2022-08-11T03:08:47;7.35;;;3.60;;
72132;SDS011;60008;50.826;6.896;2022-08-11T03:14:30;7.38;;;3.38;;
72132;SDS011;60008;50.826;6.896;2022-08-11T03:17:27;9.37;;;3.30;;
72132;SDS011;60008;50.826;6.896;2022-08-11T03:20:05;5.45;;;3.25;;
72132;SDS011;60008;50.826;6.896;2022-08-11T03:23:08;6.32;;;2.95;;
72132;SDS011;60008;50.826;6.896;2022-08-11T03:26:00;7.13;;;3.35;;
72132;SDS011;60008;50.826;6.896;2022-08-11T03:28:50;7.18;;;3.47;;
72132;SDS011;60008;50.826;6.896;2022-08-11T03:31:28;6.20;;;3.37;;
72132;SDS011;60008;50.826;6.896;2022-08-11T03:34:06;6.03;;;3.22;;
72132;SDS011;60008;50.826;6.896;2022-08-11T03:43:51;5.93;;;3.22;;
72132;SDS011;60008;50.826;6.896;2022-08-11T03:46:34;5.33;;;3.20;;
72132;SDS011;60008;50.826;6.896;2022-08-11T03:51:55;6.30;;;3.40;;
72132;SDS011;60008;50.826;6.896;2022-08-11T04:16:53;5.63;;;3.17;;
72132;SDS011;60008;50.826;6.896;2022-08-11T04:25:03;5.22;;;3.40;;
72132;SDS011;60008;50.826;6.896;2022-08-11T04:27:42;6.10;;;3.40;;
72132;SDS011;60008;50.826;6.896;2022-08-11T04:44:52;7.60;;;3.70;;
72132;SDS011;60008;50.826;6.896;2022-08-11T04:47:32;9.93;;;3.78;;
72132;SDS011;60008;50.826;6.896;2022-08-11T04:53:59;7.55;;;3.50;;
72132;SDS011;60008;50.826;6.896;2022-08-11T04:56:56;7.83;;;3.30;;
72132;SDS011;60008;50.826;6.896;2022-08-11T05:03:03;7.20;;;4.00;;
72132;SDS011;60008;50.826;6.896;2022-08-11T05:08:40;6.75;;;3.50;;
72132;SDS011;60008;50.826;6.896;2022-08-11T05:11:29;6.70;;;3.23;;
72132;SDS011;60008;50.826;6.896;2022-08-11T05:16:56;5.57;;;3.35;;
72132;SDS011;60008;50.826;6.896;2022-08-11T05:19:47;11.57;;;3.47;;
72132;SDS011;60008;50.826;6.896;2022-08-11T05:22:33;7.07;;;3.50;;
72132;SDS011;60008;50.826;6.896;2022-08-11T05:25:27;7.53;;;3.43;;
72132;SDS011;60008;50.826;6.896;2022-08-11T05:28:45;5.05;;;3.08;;
72132;SDS011;60008;50.826;6.896;2022-08-11T05:31:48;7.22;;;3.47;;
72132;SDS011;60008;50.826;6.896;2022-08-11T05:34:45;5.15;;;3.30;;
72132;SDS011;60008;50.826;6.896;2022-08-11T05:42:54;7.07;;;3.38;;
72132;SDS011;60008;50.826;6.896;2022-08-11T05:45:42;6.97;;;3.42;;
72132;SDS011;60008;50.826;6.896;2022-08-11T05:48:33;9.55;;;3.40;;
72132;SDS011;60008;50.826;6.896;2022-08-11T05:51:20;5.57;;;3.25;;
72132;SDS011;60008;50.826;6.896;2022-08-11T05:54:20;8.73;;;2.97;;
72132;SDS011;60008;50.826;6.896;2022-08-11T05:57:07;5.68;;;3.35;;
72132;SDS011;60008;50.826;6.896;2022-08-11T05:59:59;6.10;;;3.20;;
72132;SDS011;60008;50.826;6.896;2022-08-11T06:02:26;7.20;;;3.25;;
72132;SDS011;60008;50.826;6.896;2022-08-11T06:04:58;5.93;;;3.25;;
72132;SDS011;60008;50.826;6.896;2022-08-11T06:07:29;7.57;;;3.30;;
72132;SDS011;60008;50.826;6.896;2022-08-11T06:10:24;5.40;;;3.10;;
72132;SDS011;60008;50.826;6.896;2022-08-11T06:12:54;4.53;;;3.28;;
72132;SDS011;60008;50.826;6.896;2022-08-11T06:15:23;9.93;;;3.20;;
72132;SDS011;60008;50.826;6.896;2022-08-11T06:17:51;7.07;;;3.10;;
72132;SDS011;60008;50.826;6.896;2022-08-11T06:20:20;9.67;;;3.70;;
72132;SDS011;60008;50.826;6.896;2022-08-11T06:22:56;9.57;;;3.20;;
72132;SDS011;60008;50.826;6.896;2022-08-11T06:25:34;6.18;;;3.50;;
72132;SDS011;60008;50.826;6.896;2022-08-11T06:28:02;5.10;;;2.97;;
72132;SDS011;60008;50.826;6.896;2022-08-11T06:33:12;8.83;;;3.17;;
72132;SDS011;60008;50.826;6.896;2022-08-11T06:46:37;6.77;;;3.03;;
72132;SDS011;60008;50.826;6.896;2022-08-11T06:49:07;5.63;;;3.30;;
72132;SDS011;60008;50.826;6.896;2022-08-11T06:52:03;7.75;;;3.30;;
72132;SDS011;60008;50.826;6.896;2022-08-11T06:54:42;6.03;;;2.83;;
72132;SDS011;60008;50.826;6.896;2022-08-11T06:57:14;5.10;;;2.97;;
72132;SDS011;60008;50.826;6.896;2022-08-11T07:00:03;5.60;;;3.20;;
72132;SDS011;60008;50.826;6.896;2022-08-11T07:02:55;5.40;;;3.08;;
72132;SDS011;60008;50.826;6.896;2022-08-11T07:15:08;5.27;;;3.13;;
72132;SDS011;60008;50.826;6.896;2022-08-11T07:18:22;5.07;;;3.05;;
72132;SDS011;60008;50.826;6.896;2022-08-11T07:21:31;9.27;;;3.25;;
72132;SDS011;60008;50.826;6.896;2022-08-11T07:24:35;5.07;;;3.20;;
72132;SDS011;60008;50.826;6.896;2022-08-11T07:27:43;9.65;;;3.15;;
72132;SDS011;60008;50.826;6.896;2022-08-11T07:30:31;5.47;;;2.80;;
72132;SDS011;60008;50.826;6.896;2022-08-11T07:33:02;6.43;;;2.85;;
72132;SDS011;60008;50.826;6.896;2022-08-11T07:35:32;5.78;;;3.00;;
72132;SDS011;60008;50.826;6.896;2022-08-11T07:38:05;6.50;;;3.08;;
72132;SDS011;60008;50.826;6.896;2022-08-11T07:40:34;6.20;;;3.25;;
72132;SDS011;60008;50.826;6.896;2022-08-11T07:43:02;6.27;;;3.10;;
72132;SDS011;60008;50.826;6.896;2022-08-11T07:45:29;5.95;;;3.25;;
72132;SDS011;60008;50.826;6.896;2022-08-11T07:48:15;6.78;;;3.22;;
72132;SDS011;60008;50.826;6.896;2022-08-11T07:51:01;5.72;;;3.28;;
72132;SDS011;60008;50.826;6.896;2022-08-11T07:53:47;8.73;;;3.03;;
72132;SDS011;60008;50.826;6.896;2022-08-11T07:56:28;9.50;;;2.73;;
72132;SDS011;60008;50.826;6.896;2022-08-11T07:59:20;6.97;;;3.35;;
72132;SDS011;60008;50.826;6.896;2022-08-11T08:02:27;5.57;;;2.95;;
72132;SDS011;60008;50.826;6.896;2022-08-11T08:05:15;7.47;;;3.17;;
72132;SDS011;60008;50.826;6.896;2022-08-11T08:08:03;6.22;;;3.30;;
72132;SDS011;60008;50.826;6.896;2022-08-11T08:10:54;10.33;;;3.87;;
72132;SDS011;60008;50.826;6.896;2022-08-11T08:13:41;9.13;;;3.38;;
72132;SDS011;60008;50.826;6.896;2022-08-11T08:16:28;6.88;;;4.00;;
72132;SDS011;60008;50.826;6.896;2022-08-11T08:19:15;6.15;;;3.70;;
72132;SDS011;60008;50.826;6.896;2022-08-11T08:21:44;6.55;;;3.78;;
72132;SDS011;60008;50.826;6.896;2022-08-11T08:24:12;7.73;;;4.33;;
72132;SDS011;60008;50.826;6.896;2022-08-11T08:26:41;10.37;;;5.17;;
72132;SDS011;60008;50.826;6.896;2022-08-11T08:29:25;7.18;;;3.83;;
72132;SDS011;60008;50.826;6.896;2022-08-11T08:32:12;7.03;;;4.05;;
72132;SDS011;60008;50.826;6.896;2022-08-11T08:34:41;9.65;;;4.40;;
72132;SDS011;60008;50.826;6.896;2022-08-11T08:37:09;7.90;;;4.10;;
72132;SDS011;60008;50.826;6.896;2022-08-11T08:39:55;10.45;;;4.15;;
72132;SDS011;60008;50.826;6.896;2022-08-11T08:42:24;16.80;;;4.10;;
72132;SDS011;60008;50.826;6.896;2022-08-11T08:44:56;5.87;;;3.60;;
72132;SDS011;60008;50.826;6.896;2022-08-11T08:47:24;5.45;;;4.30;;
72132;SDS011;60008;50.826;6.896;2022-08-11T08:50:19;8.07;;;4.20;;
72132;SDS011;60008;50.826;6.896;2022-08-11T08:53:07;8.98;;;3.83;;
72132;SDS011;60008;50.826;6.896;2022-08-11T08:55:34;7.10;;;4.53;;
72132;SDS011;60008;50.826;6.896;2022-08-11T08:58:01;10.38;;;4.13;;
72132;SDS011;60008;50.826;6.896;2022-08-11T09:00:44;5.38;;;4.20;;
72132;SDS011;60008;50.826;6.896;2022-08-11T09:03:12;5.67;;;3.60;;
72132;SDS011;60008;50.826;6.896;2022-08-11T09:05:59;6.50;;;5.47;;
72132;SDS011;60008;50.826;6.896;2022-08-11T09:08:26;12.18;;;4.65;;
72132;SDS011;60008;50.826;6.896;2022-08-11T09:10:55;5.07;;;4.35;;
72132;SDS011;60008;50.826;6.896;2022-08-11T09:13:42;6.75;;;4.43;;
72132;SDS011;60008;50.826;6.896;2022-08-11T09:16:28;7.45;;;3.92;;
72132;SDS011;60008;50.826;6.896;2022-08-11T09:18:55;6.07;;;4.38;;
72132;SDS011;60008;50.826;6.896;2022-08-11T09:21:25;6.00;;;4.47;;
72132;SDS011;60008;50.826;6.896;2022-08-11T09:24:12;7.10;;;4.30;;
72132;SDS011;60008;50.826;6.896;2022-08-11T09:26:58;7.07;;;4.15;;
72132;SDS011;60008;50.826;6.896;2022-08-11T09:29:31;7.05;;;4.55;;
72132;SDS011;60008;50.826;6.896;2022-08-11T09:31:59;6.50;;;3.88;;
72132;SDS011;60008;50.826;6.896;2022-08-11T09:34:26;7.88;;;4.07;;
72132;SDS011;60008;50.826;6.896;2022-08-11T09:36:56;4.80;;;4.10;;
72132;SDS011;60008;50.826;6.896;2022-08-11T09:40:03;12.77;;;4.30;;
72132;SDS011;60008;50.826;6.896;2022-08-11T09:42:52;6.25;;;4.07;;
72132;SDS011;60008;50.826;6.896;2022-08-11T09:45:39;7.32;;;3.60;;
72132;SDS011;60008;50.826;6.896;2022-08-11T09:48:06;7.05;;;4.03;;
72132;SDS011;60008;50.826;6.896;2022-08-11T09:50:33;8.70;;;4.32;;
72132;SDS011;60008;50.826;6.896;2022-08-11T09:53:00;5.13;;;3.63;;
72132;SDS011;60008;50.826;6.896;2022-08-11T09:55:51;6.17;;;4.03;;
72132;SDS011;60008;50.826;6.896;2022-08-11T09:58:18;5.55;;;3.65;;
72132;SDS011;60008;50.826;6.896;2022-08-11T10:01:07;7.00;;;4.20;;
72132;SDS011;60008;50.826;6.896;2022-08-11T10:03:57;6.15;;;4.03;;
72132;SDS011;60008;50.826;6.896;2022-08-11T10:06:27;8.85;;;3.50;;
72132;SDS011;60008;50.826;6.896;2022-08-11T10:09:19;6.90;;;3.00;;
72132;SDS011;60008;50.826;6.896;2022-08-11T10:11:55;5.50;;;3.40;;
72132;SDS011;60008;50.826;6.896;2022-08-11T10:14:24;4.20;;;3.13;;
72132;SDS011;60008;50.826;6.896;2022-08-11T10:17:11;7.05;;;3.78;;
72132;SDS011;60008;50.826;6.896;2022-08-11T10:19:41;6.95;;;2.92;;
72132;SDS011;60008;50.826;6.896;2022-08-11T10:22:30;7.78;;;3.70;;
72132;SDS011;60008;50.826;6.896;2022-08-11T10:25:37;5.20;;;3.30;;
72132;SDS011;60008;50.826;6.896;2022-08-11T10:28:23;6.50;;;4.07;;
72132;SDS011;60008;50.826;6.896;2022-08-11T10:31:05;11.40;;;4.20;;
72132;SDS011;60008;50.826;6.896;2022-08-11T10:34:11;6.40;;;4.28;;
72132;SDS011;60008;50.826;6.896;2022-08-11T10:36:39;5.47;;;3.88;;
72132;SDS011;60008;50.826;6.896;2022-08-11T10:39:14;5.20;;;3.90;;
72132;SDS011;60008;50.826;6.896;2022-08-11T10:41:44;5.17;;;3.93;;
72132;SDS011;60008;50.826;6.896;2022-08-11T10:44:41;7.17;;;3.80;;
72132;SDS011;60008;50.826;6.896;2022-08-11T10:47:13;9.10;;;3.60;;
72132;SDS011;60008;50.826;6.896;2022-08-11T10:50:03;5.43;;;4.18;;
72132;SDS011;60008;50.826;6.896;2022-08-11T10:52:53;4.85;;;3.20;;
72132;SDS011;60008;50.826;6.896;2022-08-11T10:55:41;4.93;;;3.58;;
72132;SDS011;60008;50.826;6.896;2022-08-11T10:58:32;6.00;;;3.40;;
72132;SDS011;60008;50.826;6.896;2022-08-11T11:01:20;4.90;;;3.30;;
72132;SDS011;60008;50.826;6.896;2022-08-11T11:03:49;9.43;;;3.42;;
72132;SDS011;60008;50.826;6.896;2022-08-11T11:09:06;8.70;;;3.97;;
72132;SDS011;60008;50.826;6.896;2022-08-11T11:11:37;7.33;;;3.30;;
72132;SDS011;60008;50.826;6.896;2022-08-11T11:14:27;7.10;;;3.67;;
72132;SDS011;60008;50.826;6.896;2022-08-11T11:20:13;5.43;;;4.00;;
72132;SDS011;60008;50.826;6.896;2022-08-11T11:23:03;5.15;;;3.22;;
72132;SDS011;60008;50.826;6.896;2022-08-11T11:36:54;4.90;;;3.50;;
72132;SDS011;60008;50.826;6.896;2022-08-11T11:39:24;6.95;;;3.50;;
72132;SDS011;60008;50.826;6.896;2022-08-11T11:41:58;8.00;;;3.90;;
72132;SDS011;60008;50.826;6.896;2022-08-11T11:44:28;7.53;;;3.57;;
72132;SDS011;60008;50.826;6.896;2022-08-11T11:46:56;6.27;;;3.27;;
72132;SDS011;60008;50.826;6.896;2022-08-11T11:49:26;6.97;;;3.10;;
72132;SDS011;60008;50.826;6.896;2022-08-11T11:51:54;6.47;;;3.42;;
72132;SDS011;60008;50.826;6.896;2022-08-11T11:54:23;7.30;;;3.10;;
72132;SDS011;60008;50.826;6.896;2022-08-11T11:56:52;8.18;;;3.20;;
72132;SDS011;60008;50.826;6.896;2022-08-11T11:59:20;9.20;;;3.43;;
72132;SDS011;60008;50.826;6.896;2022-08-11T12:02:07;5.73;;;3.20;;
72132;SDS011;60008;50.826;6.896;2022-08-11T12:04:39;5.50;;;3.17;;
72132;SDS011;60008;50.826;6.896;2022-08-11T12:07:09;4.57;;;3.30;;
72132;SDS011;60008;50.826;6.896;2022-08-11T12:09:54;4.88;;;3.53;;
72132;SDS011;60008;50.826;6.896;2022-08-11T12:12:23;5.05;;;3.55;;
72132;SDS011;60008;50.826;6.896;2022-08-11T12:15:10;6.30;;;3.00;;
72132;SDS011;60008;50.826;6.896;2022-08-11T12:17:37;5.60;;;3.25;;
72132;SDS011;60008;50.826;6.896;2022-08-11T12:20:05;4.10;;;2.90;;
72132;SDS011;60008;50.826;6.896;2022-08-11T12:22:54;4.28;;;2.97;;
72132;SDS011;60008;50.826;6.896;2022-08-11T12:25:41;5.75;;;3.17;;
72132;SDS011;60008;50.826;6.896;2022-08-11T12:28:47;7.63;;;3.03;;
72132;SDS011;60008;50.826;6.896;2022-08-11T12:31:15;6.70;;;2.97;;
72132;SDS011;60008;50.826;6.896;2022-08-11T12:33:42;6.15;;;3.40;;
72132;SDS011;60008;50.826;6.896;2022-08-11T12:36:09;5.78;;;3.30;;
72132;SDS011;60008;50.826;6.896;2022-08-11T12:38:42;4.60;;;3.13;;
72132;SDS011;60008;50.826;6.896;2022-08-11T12:41:16;4.82;;;3.42;;
72132;SDS011;60008;50.826;6.896;2022-08-11T12:44:05;5.67;;;3.30;;
72132;SDS011;60008;50.826;6.896;2022-08-11T12:46:56;4.47;;;2.75;;
72132;SDS011;60008;50.826;6.896;2022-08-11T12:49:24;8.00;;;3.20;;
72132;SDS011;60008;50.826;6.896;2022-08-11T12:52:18;5.93;;;2.92;;
72132;SDS011;60008;50.826;6.896;2022-08-11T13:00:21;6.67;;;2.80;;
72132;SDS011;60008;50.826;6.896;2022-08-11T13:03:09;6.00;;;3.20;;
72132;SDS011;60008;50.826;6.896;2022-08-11T13:05:56;7.72;;;3.47;;
72132;SDS011;60008;50.826;6.896;2022-08-11T13:08:25;7.25;;;3.33;;
72132;SDS011;60008;50.826;6.896;2022-08-11T13:10:55;6.68;;;3.20;;
72132;SDS011;60008;50.826;6.896;2022-08-11T13:13:45;5.30;;;2.90;;
72132;SDS011;60008;50.826;6.896;2022-08-11T13:16:23;6.53;;;3.00;;
72132;SDS011;60008;50.826;6.896;2022-08-11T13:18:53;3.70;;;3.00;;
72132;SDS011;60008;50.826;6.896;2022-08-11T13:21:23;6.65;;;2.97;;
72132;SDS011;60008;50.826;6.896;2022-08-11T13:23:52;4.53;;;2.88;;
72132;SDS011;60008;50.826;6.896;2022-08-11T13:26:31;6.47;;;3.47;;
72132;SDS011;60008;50.826;6.896;2022-08-11T13:29:22;4.47;;;2.87;;
72132;SDS011;60008;50.826;6.896;2022-08-11T13:31:51;3.60;;;2.63;;
72132;SDS011;60008;50.826;6.896;2022-08-11T13:34:19;4.65;;;2.92;;
72132;SDS011;60008;50.826;6.896;2022-08-11T13:36:52;7.60;;;3.55;;
72132;SDS011;60008;50.826;6.896;2022-08-11T13:39:21;6.93;;;2.80;;
72132;SDS011;60008;50.826;6.896;2022-08-11T13:41:52;7.65;;;3.22;;
72132;SDS011;60008;50.826;6.896;2022-08-11T13:44:22;4.50;;;2.93;;
72132;SDS011;60008;50.826;6.896;2022-08-11T13:46:57;7.00;;;2.73;;
72132;SDS011;60008;50.826;6.896;2022-08-11T13:49:27;4.40;;;2.80;;
72132;SDS011;60008;50.826;6.896;2022-08-11T13:51:59;9.10;;;3.45;;
72132;SDS011;60008;50.826;6.896;2022-08-11T13:54:29;4.60;;;3.22;;
72132;SDS011;60008;50.826;6.896;2022-08-11T13:57:03;5.20;;;3.05;;
72132;SDS011;60008;50.826;6.896;2022-08-11T13:59:34;4.87;;;3.10;;
72132;SDS011;60008;50.826;6.896;2022-08-11T14:02:18;6.30;;;3.00;;
72132;SDS011;60008;50.826;6.896;2022-08-11T14:05:04;5.05;;;3.20;;
72132;SDS011;60008;50.826;6.896;2022-08-11T14:07:38;4.38;;;2.80;;
72132;SDS011;60008;50.826;6.896;2022-08-11T14:10:11;5.88;;;3.00;;
72132;SDS011;60008;50.826;6.896;2022-08-11T14:12:42;5.53;;;2.95;;
72132;SDS011;60008;50.826;6.896;2022-08-11T14:15:35;3.70;;;2.80;;
72132;SDS011;60008;50.826;6.896;2022-08-11T14:20:51;5.40;;;2.65;;
72132;SDS011;60008;50.826;6.896;2022-08-11T14:23:42;4.28;;;2.88;;
72132;SDS011;60008;50.826;6.896;2022-08-11T14:26:12;5.10;;;3.00;;
72132;SDS011;60008;50.826;6.896;2022-08-11T14:28:58;4.93;;;2.88;;
72132;SDS011;60008;50.826;6.896;2022-08-11T14:31:28;4.50;;;3.10;;
72132;SDS011;60008;50.826;6.896;2022-08-11T14:33:56;4.80;;;3.00;;
72132;SDS011;60008;50.826;6.896;2022-08-11T14:36:29;5.53;;;3.08;;
72132;SDS011;60008;50.826;6.896;2022-08-11T14:39:00;5.40;;;3.00;;
72132;SDS011;60008;50.826;6.896;2022-08-11T14:41:29;5.22;;;2.83;;
72132;SDS011;60008;50.826;6.896;2022-08-11T14:44:36;5.15;;;2.83;;
72132;SDS011;60008;50.826;6.896;2022-08-11T14:47:22;4.77;;;3.10;;
72132;SDS011;60008;50.826;6.896;2022-08-11T14:49:52;4.83;;;2.87;;
72132;SDS011;60008;50.826;6.896;2022-08-11T14:52:37;5.15;;;3.00;;
72132;SDS011;60008;50.826;6.896;2022-08-11T14:55:08;4.93;;;2.70;;
72132;SDS011;60008;50.826;6.896;2022-08-11T14:57:56;4.30;;;2.70;;
72132;SDS011;60008;50.826;6.896;2022-08-11T15:00:23;6.85;;;2.90;;
72132;SDS011;60008;50.826;6.896;2022-08-11T15:02:51;5.50;;;2.80;;
72132;SDS011;60008;50.826;6.896;2022-08-11T15:08:38;4.65;;;3.00;;
72132;SDS011;60008;50.826;6.896;2022-08-11T15:11:27;6.10;;;3.33;;
72132;SDS011;60008;50.826;6.896;2022-08-11T15:14:14;7.00;;;3.28;;
72132;SDS011;60008;50.826;6.896;2022-08-11T15:17:02;7.72;;;3.50;;
72132;SDS011;60008;50.826;6.896;2022-08-11T15:19:35;5.20;;;2.80;;
72132;SDS011;60008;50.826;6.896;2022-08-11T15:22:26;5.50;;;3.10;;
72132;SDS011;60008;50.826;6.896;2022-08-11T15:25:12;4.63;;;2.88;;
72132;SDS011;60008;50.826;6.896;2022-08-11T15:27:39;4.20;;;3.13;;
72132;SDS011;60008;50.826;6.896;2022-08-11T15:30:28;4.53;;;2.92;;
72132;SDS011;60008;50.826;6.896;2022-08-11T15:33:14;5.32;;;3.50;;
72132;SDS011;60008;50.826;6.896;2022-08-11T15:36:02;7.47;;;2.97;;
72132;SDS011;60008;50.826;6.896;2022-08-11T15:41:57;5.80;;;2.63;;
72132;SDS011;60008;50.826;6.896;2022-08-11T15:44:50;4.72;;;2.80;;
72132;SDS011;60008;50.826;6.896;2022-08-11T15:47:58;11.63;;;3.40;;
72132;SDS011;60008;50.826;6.896;2022-08-11T15:50:31;4.72;;;3.63;;
72132;SDS011;60008;50.826;6.896;2022-08-11T15:53:23;5.65;;;3.25;;
72132;SDS011;60008;50.826;6.896;2022-08-11T15:55:51;6.50;;;3.20;;
72132;SDS011;60008;50.826;6.896;2022-08-11T15:58:19;5.00;;;3.40;;
72132;SDS011;60008;50.826;6.896;2022-08-11T16:01:07;5.80;;;2.90;;
72132;SDS011;60008;50.826;6.896;2022-08-11T16:03:59;7.75;;;3.78;;
72132;SDS011;60008;50.826;6.896;2022-08-11T16:09:16;5.28;;;3.28;;
72132;SDS011;60008;50.826;6.896;2022-08-11T16:11:47;6.07;;;2.90;;
72132;SDS011;60008;50.826;6.896;2022-08-11T16:14:16;7.17;;;3.13;;
72132;SDS011;60008;50.826;6.896;2022-08-11T16:17:04;6.60;;;3.50;;
72132;SDS011;60008;50.826;6.896;2022-08-11T16:19:33;5.35;;;2.92;;
72132;SDS011;60008;50.826;6.896;2022-08-11T16:22:06;4.25;;;3.10;;
72132;SDS011;60008;50.826;6.896;2022-08-11T16:24:35;4.57;;;3.25;;
72132;SDS011;60008;50.826;6.896;2022-08-11T16:27:25;5.20;;;3.10;;
72132;SDS011;60008;50.826;6.896;2022-08-11T16:29:52;5.53;;;3.60;;
72132;SDS011;60008;50.826;6.896;2022-08-11T16:32:22;5.13;;;3.10;;
72132;SDS011;60008;50.826;6.896;2022-08-11T16:34:59;4.88;;;3.28;;
72132;SDS011;60008;50.826;6.896;2022-08-11T16:37:46;4.43;;;3.25;;
72132;SDS011;60008;50.826;6.896;2022-08-11T16:40:32;4.40;;;3.20;;
72132;SDS011;60008;50.826;6.896;2022-08-11T16:43:00;4.30;;;2.80;;
72132;SDS011;60008;50.826;6.896;2022-08-11T16:45:49;5.67;;;3.17;;
72132;SDS011;60008;50.826;6.896;2022-08-11T16:48:36;9.00;;;2.92;;
72132;SDS011;60008;50.826;6.896;2022-08-11T16:51:06;4.85;;;3.20;;
72132;SDS011;60008;50.826;6.896;2022-08-11T16:53:35;5.05;;;3.05;;
72132;SDS011;60008;50.826;6.896;2022-08-11T16:56:35;6.90;;;3.08;;
72132;SDS011;60008;50.826;6.896;2022-08-11T16:59:08;10.20;;;3.00;;
72132;SDS011;60008;50.826;6.896;2022-08-11T17:01:47;5.47;;;3.30;;
72132;SDS011;60008;50.826;6.896;2022-08-11T17:04:16;5.10;;;3.10;;
72132;SDS011;60008;50.826;6.896;2022-08-11T17:07:08;5.20;;;2.92;;
72132;SDS011;60008;50.826;6.896;2022-08-11T17:10:04;4.90;;;3.22;;
72132;SDS011;60008;50.826;6.896;2022-08-11T17:13:10;9.50;;;3.20;;
72132;SDS011;60008;50.826;6.896;2022-08-11T17:15:43;5.53;;;2.90;;
72132;SDS011;60008;50.826;6.896;2022-08-11T17:18:32;5.30;;;3.27;;
72132;SDS011;60008;50.826;6.896;2022-08-11T17:21:09;5.72;;;2.97;;
72132;SDS011;60008;50.826;6.896;2022-08-11T17:23:57;4.38;;;3.20;;
72132;SDS011;60008;50.826;6.896;2022-08-11T17:35:34;4.30;;;3.38;;
72132;SDS011;60008;50.826;6.896;2022-08-11T17:38:05;5.18;;;3.30;;
72132;SDS011;60008;50.826;6.896;2022-08-11T17:40:34;6.82;;;3.17;;
72132;SDS011;60008;50.826;6.896;2022-08-11T17:43:05;4.72;;;3.50;;
72132;SDS011;60008;50.826;6.896;2022-08-11T17:45:52;5.77;;;3.00;;
72132;SDS011;60008;50.826;6.896;2022-08-11T17:48:41;4.07;;;2.80;;
72132;SDS011;60008;50.826;6.896;2022-08-11T17:51:14;6.57;;;3.15;;
72132;SDS011;60008;50.826;6.896;2022-08-11T17:54:04;6.35;;;3.17;;
72132;SDS011;60008;50.826;6.896;2022-08-11T17:56:53;5.97;;;3.15;;
72132;SDS011;60008;50.826;6.896;2022-08-11T17:59:46;4.63;;;3.15;;
72132;SDS011;60008;50.826;6.896;2022-08-11T18:02:18;8.95;;;3.35;;
72132;SDS011;60008;50.826;6.896;2022-08-11T18:05:29;4.63;;;3.23;;
72132;SDS011;60008;50.826;6.896;2022-08-11T18:08:00;8.15;;;3.55;;
72132;SDS011;60008;50.826;6.896;2022-08-11T18:10:51;4.38;;;3.20;;
72132;SDS011;60008;50.826;6.896;2022-08-11T18:14:00;6.32;;;3.33;;
72132;SDS011;60008;50.826;6.896;2022-08-11T18:16:47;6.85;;;3.30;;
72132;SDS011;60008;50.826;6.896;2022-08-11T18:19:32;8.43;;;3.50;;
72132;SDS011;60008;50.826;6.896;2022-08-11T18:22:19;6.90;;;3.13;;
72132;SDS011;60008;50.826;6.896;2022-08-11T18:25:14;4.80;;;2.80;;
72132;SDS011;60008;50.826;6.896;2022-08-11T18:28:11;5.45;;;2.88;;
72132;SDS011;60008;50.826;6.896;2022-08-11T18:30:59;6.35;;;3.42;;
72132;SDS011;60008;50.826;6.896;2022-08-11T18:33:50;9.38;;;3.10;;
72132;SDS011;60008;50.826;6.896;2022-08-11T18:37:24;8.13;;;2.90;;
72132;SDS011;60008;50.826;6.896;2022-08-11T18:39:58;4.50;;;3.00;;
72132;SDS011;60008;50.826;6.896;2022-08-11T18:42:47;6.03;;;3.00;;
72132;SDS011;60008;50.826;6.896;2022-08-11T18:45:35;6.32;;;3.20;;
72132;SDS011;60008;50.826;6.896;2022-08-11T18:48:34;4.28;;;3.00;;
72132;SDS011;60008;50.826;6.896;2022-08-11T18:51:22;8.55;;;3.08;;
72132;SDS011;60008;50.826;6.896;2022-08-11T18:54:10;5.07;;;2.93;;
72132;SDS011;60008;50.826;6.896;2022-08-11T18:56:59;5.95;;;3.60;;
72132;SDS011;60008;50.826;6.896;2022-08-11T18:59:47;5.50;;;2.97;;
72132;SDS011;60008;50.826;6.896;2022-08-11T19:02:34;5.05;;;3.00;;
72132;SDS011;60008;50.826;6.896;2022-08-11T19:05:22;9.13;;;3.20;;
72132;SDS011;60008;50.826;6.896;2022-08-11T19:08:30;8.57;;;3.10;;
72132;SDS011;60008;50.826;6.896;2022-08-11T19:11:21;7.60;;;2.97;;
72132;SDS011;60008;50.826;6.896;2022-08-11T19:14:09;4.93;;;3.30;;
72132;SDS011;60008;50.826;6.896;2022-08-11T19:16:57;4.60;;;3.30;;
72132;SDS011;60008;50.826;6.896;2022-08-11T19:20:04;4.75;;;3.28;;
72132;SDS011;60008;50.826;6.896;2022-08-11T19:22:52;6.57;;;3.50;;
72132;SDS011;60008;50.826;6.896;2022-08-11T19:25:41;4.80;;;3.53;;
72132;SDS011;60008;50.826;6.896;2022-08-11T19:28:27;6.25;;;3.47;;
72132;SDS011;60008;50.826;6.896;2022-08-11T19:31:13;8.15;;;3.60;;
72132;SDS011;60008;50.826;6.896;2022-08-11T19:33:59;5.53;;;3.65;;
72132;SDS011;60008;50.826;6.896;2022-08-11T19:36:46;9.32;;;4.40;;
72132;SDS011;60008;50.826;6.896;2022-08-11T19:39:32;8.37;;;4.97;;
72132;SDS011;60008;50.826;6.896;2022-08-11T19:42:19;6.70;;;4.40;;
72132;SDS011;60008;50.826;6.896;2022-08-11T19:45:06;8.18;;;3.65;;
72132;SDS011;60008;50.826;6.896;2022-08-11T19:47:51;7.47;;;3.75;;
72132;SDS011;60008;50.826;6.896;2022-08-11T19:50:57;13.75;;;4.00;;
72132;SDS011;60008;50.826;6.896;2022-08-11T19:53:43;11.10;;;3.50;;
72132;SDS011;60008;50.826;6.896;2022-08-11T19:56:29;5.83;;;3.47;;
72132;SDS011;60008;50.826;6.896;2022-08-11T19:59:17;10.85;;;3.92;;
72132;SDS011;60008;50.826;6.896;2022-08-11T20:02:03;5.70;;;3.95;;